sensor_id;sensor_type;location;lat;lon;timestamp;P1;durP1;ratioP1;P2;durP2;ratioP2
77598;SDS011;66758;52.078;5.070;2023-03-01T00:01:25;19.23;;;11.10;;
77598;SDS011;66758;52.078;5.070;2023-03-01T00:03:53;20.85;;;11.65;;
77598;SDS011;66758;52.078;5.070;2023-03-01T00:06:20;17.48;;;10.75;;
77598;SDS011;66758;52.078;5.070;2023-03-01T00:08:47;22.05;;;12.25;;
77598;SDS011;66758;52.078;5.070;2023-03-01T00:11:15;19.55;;;11.32;;
77598;SDS011;66758;52.078;5.070;2023-03-01T00:13:42;23.00;;;11.67;;
77598;SDS011;66758;52.078;5.070;2023-03-01T00:16:14;18.02;;;11.60;;
77598;SDS011;66758;52.078;5.070;2023-03-01T00:18:41;19.02;;;11.32;;
77598;SDS011;66758;52.078;5.070;2023-03-01T00:21:07;19.87;;;10.83;;
77598;SDS011;66758;52.078;5.070;2023-03-01T00:23:36;19.45;;;11.75;;
77598;SDS011;66758;52.078;5.070;2023-03-01T00:26:04;22.80;;;13.10;;
77598;SDS011;66758;52.078;5.070;2023-03-01T00:28:32;18.23;;;11.10;;
77598;SDS011;66758;52.078;5.070;2023-03-01T00:31:02;19.40;;;11.52;;
77598;SDS011;66758;52.078;5.070;2023-03-01T00:33:32;19.80;;;10.38;;
77598;SDS011;66758;52.078;5.070;2023-03-01T00:35:58;17.53;;;10.00;;
77598;SDS011;66758;52.078;5.070;2023-03-01T00:38:24;17.95;;;10.55;;
77598;SDS011;66758;52.078;5.070;2023-03-01T00:40:50;17.50;;;10.00;;
77598;SDS011;66758;52.078;5.070;2023-03-01T00:43:16;18.53;;;10.07;;
77598;SDS011;66758;52.078;5.070;2023-03-01T00:45:42;16.40;;;9.98;;
77598;SDS011;66758;52.078;5.070;2023-03-01T00:48:07;18.13;;;10.73;;
77598;SDS011;66758;52.078;5.070;2023-03-01T00:50:34;17.03;;;9.47;;
77598;SDS011;66758;52.078;5.070;2023-03-01T00:53:00;16.70;;;10.43;;
77598;SDS011;66758;52.078;5.070;2023-03-01T00:55:25;16.63;;;10.20;;
77598;SDS011;66758;52.078;5.070;2023-03-01T00:57:51;21.47;;;11.33;;
77598;SDS011;66758;52.078;5.070;2023-03-01T01:00:17;21.08;;;11.93;;
77598;SDS011;66758;52.078;5.070;2023-03-01T01:02:44;18.08;;;10.18;;
77598;SDS011;66758;52.078;5.070;2023-03-01T01:05:09;18.27;;;10.47;;
77598;SDS011;66758;52.078;5.070;2023-03-01T01:07:35;20.13;;;10.48;;
77598;SDS011;66758;52.078;5.070;2023-03-01T01:10:01;21.37;;;11.83;;
77598;SDS011;66758;52.078;5.070;2023-03-01T01:12:26;17.23;;;10.85;;
77598;SDS011;66758;52.078;5.070;2023-03-01T01:14:52;17.77;;;10.47;;
77598;SDS011;66758;52.078;5.070;2023-03-01T01:17:18;16.80;;;10.80;;
77598;SDS011;66758;52.078;5.070;2023-03-01T01:19:44;19.73;;;10.55;;
77598;SDS011;66758;52.078;5.070;2023-03-01T01:22:10;18.92;;;10.52;;
77598;SDS011;66758;52.078;5.070;2023-03-01T01:24:35;18.90;;;10.80;;
77598;SDS011;66758;52.078;5.070;2023-03-01T01:27:02;20.17;;;11.33;;
77598;SDS011;66758;52.078;5.070;2023-03-01T01:29:28;21.40;;;11.30;;
77598;SDS011;66758;52.078;5.070;2023-03-01T01:31:53;18.92;;;10.88;;
77598;SDS011;66758;52.078;5.070;2023-03-01T01:34:19;17.57;;;10.47;;
77598;SDS011;66758;52.078;5.070;2023-03-01T01:36:53;17.65;;;10.00;;
77598;SDS011;66758;52.078;5.070;2023-03-01T01:39:19;20.60;;;9.33;;
77598;SDS011;66758;52.078;5.070;2023-03-01T01:41:46;16.90;;;10.02;;
77598;SDS011;66758;52.078;5.070;2023-03-01T01:44:22;16.05;;;10.02;;
77598;SDS011;66758;52.078;5.070;2023-03-01T01:49:56;17.13;;;10.23;;
77598;SDS011;66758;52.078;5.070;2023-03-01T01:54:54;17.30;;;11.15;;
77598;SDS011;66758;52.078;5.070;2023-03-01T01:57:36;18.80;;;11.05;;
77598;SDS011;66758;52.078;5.070;2023-03-01T02:00:10;17.85;;;11.25;;
77598;SDS011;66758;52.078;5.070;2023-03-01T02:02:41;20.35;;;11.57;;
77598;SDS011;66758;52.078;5.070;2023-03-01T02:05:11;18.20;;;11.10;;
77598;SDS011;66758;52.078;5.070;2023-03-01T02:07:43;21.52;;;11.55;;
77598;SDS011;66758;52.078;5.070;2023-03-01T02:10:10;20.08;;;11.70;;
77598;SDS011;66758;52.078;5.070;2023-03-01T02:12:36;18.33;;;11.37;;
77598;SDS011;66758;52.078;5.070;2023-03-01T02:15:03;23.20;;;11.77;;
77598;SDS011;66758;52.078;5.070;2023-03-01T02:17:29;21.60;;;11.80;;
77598;SDS011;66758;52.078;5.070;2023-03-01T02:22:24;23.25;;;12.82;;
77598;SDS011;66758;52.078;5.070;2023-03-01T02:27:18;23.33;;;13.30;;
77598;SDS011;66758;52.078;5.070;2023-03-01T02:29:50;20.87;;;13.20;;
77598;SDS011;66758;52.078;5.070;2023-03-01T02:32:15;20.88;;;12.65;;
77598;SDS011;66758;52.078;5.070;2023-03-01T02:34:47;21.42;;;12.65;;
77598;SDS011;66758;52.078;5.070;2023-03-01T02:37:13;22.60;;;12.85;;
77598;SDS011;66758;52.078;5.070;2023-03-01T02:39:48;22.05;;;12.15;;
77598;SDS011;66758;52.078;5.070;2023-03-01T02:42:20;25.00;;;12.90;;
77598;SDS011;66758;52.078;5.070;2023-03-01T02:44:49;22.55;;;12.48;;
77598;SDS011;66758;52.078;5.070;2023-03-01T02:47:15;22.38;;;12.48;;
77598;SDS011;66758;52.078;5.070;2023-03-01T02:49:40;22.30;;;13.00;;
77598;SDS011;66758;52.078;5.070;2023-03-01T02:52:23;24.05;;;12.90;;
77598;SDS011;66758;52.078;5.070;2023-03-01T02:55:03;25.03;;;13.03;;
77598;SDS011;66758;52.078;5.070;2023-03-01T02:57:34;23.70;;;12.15;;
77598;SDS011;66758;52.078;5.070;2023-03-01T03:00:06;25.33;;;13.32;;
77598;SDS011;66758;52.078;5.070;2023-03-01T03:02:34;24.85;;;13.10;;
77598;SDS011;66758;52.078;5.070;2023-03-01T03:05:11;26.58;;;14.23;;
77598;SDS011;66758;52.078;5.070;2023-03-01T03:07:43;25.10;;;13.47;;
77598;SDS011;66758;52.078;5.070;2023-03-01T03:10:15;22.58;;;11.77;;
77598;SDS011;66758;52.078;5.070;2023-03-01T03:12:50;22.77;;;13.05;;
77598;SDS011;66758;52.078;5.070;2023-03-01T03:15:17;24.10;;;13.05;;
77598;SDS011;66758;52.078;5.070;2023-03-01T03:17:42;24.97;;;12.77;;
77598;SDS011;66758;52.078;5.070;2023-03-01T03:20:09;22.50;;;12.60;;
77598;SDS011;66758;52.078;5.070;2023-03-01T03:22:37;27.27;;;13.23;;
77598;SDS011;66758;52.078;5.070;2023-03-01T03:25:05;25.35;;;12.23;;
77598;SDS011;66758;52.078;5.070;2023-03-01T03:27:36;23.67;;;12.63;;
77598;SDS011;66758;52.078;5.070;2023-03-01T03:30:03;23.97;;;13.17;;
77598;SDS011;66758;52.078;5.070;2023-03-01T03:32:37;24.40;;;12.80;;
77598;SDS011;66758;52.078;5.070;2023-03-01T03:35:05;24.67;;;13.02;;
77598;SDS011;66758;52.078;5.070;2023-03-01T03:37:40;21.40;;;12.07;;
77598;SDS011;66758;52.078;5.070;2023-03-01T03:40:26;21.70;;;12.32;;
77598;SDS011;66758;52.078;5.070;2023-03-01T03:42:52;23.00;;;11.83;;
77598;SDS011;66758;52.078;5.070;2023-03-01T03:45:18;21.52;;;12.23;;
77598;SDS011;66758;52.078;5.070;2023-03-01T03:47:44;21.23;;;11.83;;
77598;SDS011;66758;52.078;5.070;2023-03-01T03:50:11;22.75;;;11.82;;
77598;SDS011;66758;52.078;5.070;2023-03-01T03:52:38;21.67;;;11.75;;
77598;SDS011;66758;52.078;5.070;2023-03-01T03:55:04;24.27;;;11.37;;
77598;SDS011;66758;52.078;5.070;2023-03-01T03:57:42;21.80;;;11.70;;
77598;SDS011;66758;52.078;5.070;2023-03-01T04:00:11;21.48;;;11.60;;
77598;SDS011;66758;52.078;5.070;2023-03-01T04:02:40;18.92;;;11.55;;
77598;SDS011;66758;52.078;5.070;2023-03-01T04:05:07;21.02;;;11.85;;
77598;SDS011;66758;52.078;5.070;2023-03-01T04:07:37;24.20;;;12.70;;
77598;SDS011;66758;52.078;5.070;2023-03-01T04:10:07;24.97;;;13.13;;
77598;SDS011;66758;52.078;5.070;2023-03-01T04:12:35;25.25;;;14.07;;
77598;SDS011;66758;52.078;5.070;2023-03-01T04:15:01;22.88;;;13.02;;
77598;SDS011;66758;52.078;5.070;2023-03-01T04:17:41;23.55;;;12.18;;
77598;SDS011;66758;52.078;5.070;2023-03-01T04:20:10;22.17;;;12.40;;
77598;SDS011;66758;52.078;5.070;2023-03-01T04:22:38;23.80;;;12.18;;
77598;SDS011;66758;52.078;5.070;2023-03-01T04:25:05;22.23;;;12.48;;
77598;SDS011;66758;52.078;5.070;2023-03-01T04:27:35;25.55;;;12.35;;
77598;SDS011;66758;52.078;5.070;2023-03-01T04:30:02;21.92;;;11.43;;
77598;SDS011;66758;52.078;5.070;2023-03-01T04:32:28;23.17;;;11.90;;
77598;SDS011;66758;52.078;5.070;2023-03-01T04:34:54;22.55;;;11.73;;
77598;SDS011;66758;52.078;5.070;2023-03-01T04:37:20;20.83;;;11.80;;
77598;SDS011;66758;52.078;5.070;2023-03-01T04:39:45;22.98;;;12.00;;
77598;SDS011;66758;52.078;5.070;2023-03-01T04:42:12;22.92;;;11.38;;
77598;SDS011;66758;52.078;5.070;2023-03-01T04:44:38;22.90;;;11.83;;
77598;SDS011;66758;52.078;5.070;2023-03-01T04:47:04;21.52;;;11.18;;
77598;SDS011;66758;52.078;5.070;2023-03-01T04:49:30;20.53;;;10.93;;
77598;SDS011;66758;52.078;5.070;2023-03-01T04:51:56;18.90;;;10.40;;
77598;SDS011;66758;52.078;5.070;2023-03-01T04:54:33;19.77;;;10.95;;
77598;SDS011;66758;52.078;5.070;2023-03-01T04:57:00;21.30;;;10.73;;
77598;SDS011;66758;52.078;5.070;2023-03-01T04:59:27;22.47;;;11.37;;
77598;SDS011;66758;52.078;5.070;2023-03-01T05:01:53;20.80;;;10.43;;
77598;SDS011;66758;52.078;5.070;2023-03-01T05:04:22;21.70;;;11.95;;
77598;SDS011;66758;52.078;5.070;2023-03-01T05:06:48;24.73;;;12.60;;
77598;SDS011;66758;52.078;5.070;2023-03-01T05:09:14;20.93;;;12.00;;
77598;SDS011;66758;52.078;5.070;2023-03-01T05:11:40;22.35;;;12.35;;
77598;SDS011;66758;52.078;5.070;2023-03-01T05:14:06;23.87;;;12.30;;
77598;SDS011;66758;52.078;5.070;2023-03-01T05:16:33;26.73;;;13.07;;
77598;SDS011;66758;52.078;5.070;2023-03-01T05:18:59;20.08;;;11.45;;
77598;SDS011;66758;52.078;5.070;2023-03-01T05:21:25;19.20;;;11.17;;
77598;SDS011;66758;52.078;5.070;2023-03-01T05:23:51;19.27;;;10.52;;
77598;SDS011;66758;52.078;5.070;2023-03-01T05:26:17;20.60;;;11.45;;
77598;SDS011;66758;52.078;5.070;2023-03-01T05:28:44;22.83;;;12.02;;
77598;SDS011;66758;52.078;5.070;2023-03-01T05:31:10;22.63;;;11.13;;
77598;SDS011;66758;52.078;5.070;2023-03-01T05:33:36;24.00;;;13.52;;
77598;SDS011;66758;52.078;5.070;2023-03-01T05:36:03;19.73;;;11.60;;
77598;SDS011;66758;52.078;5.070;2023-03-01T05:38:29;22.05;;;11.07;;
77598;SDS011;66758;52.078;5.070;2023-03-01T05:40:55;17.95;;;10.88;;
77598;SDS011;66758;52.078;5.070;2023-03-01T05:43:20;19.43;;;10.80;;
77598;SDS011;66758;52.078;5.070;2023-03-01T05:45:46;20.38;;;11.27;;
77598;SDS011;66758;52.078;5.070;2023-03-01T05:48:13;22.17;;;12.33;;
77598;SDS011;66758;52.078;5.070;2023-03-01T05:50:42;29.17;;;13.65;;
77598;SDS011;66758;52.078;5.070;2023-03-01T05:55:36;31.00;;;14.50;;
77598;SDS011;66758;52.078;5.070;2023-03-01T05:58:03;25.45;;;13.43;;
77598;SDS011;66758;52.078;5.070;2023-03-01T06:00:31;30.97;;;14.40;;
77598;SDS011;66758;52.078;5.070;2023-03-01T06:02:57;33.38;;;15.57;;
77598;SDS011;66758;52.078;5.070;2023-03-01T06:05:24;31.00;;;15.25;;
77598;SDS011;66758;52.078;5.070;2023-03-01T06:07:50;29.63;;;14.38;;
77598;SDS011;66758;52.078;5.070;2023-03-01T06:10:17;27.10;;;14.27;;
77598;SDS011;66758;52.078;5.070;2023-03-01T06:12:43;25.70;;;12.98;;
77598;SDS011;66758;52.078;5.070;2023-03-01T06:15:10;27.05;;;13.70;;
77598;SDS011;66758;52.078;5.070;2023-03-01T06:17:38;24.02;;;12.18;;
77598;SDS011;66758;52.078;5.070;2023-03-01T06:20:07;24.20;;;12.17;;
77598;SDS011;66758;52.078;5.070;2023-03-01T06:22:35;24.95;;;11.73;;
77598;SDS011;66758;52.078;5.070;2023-03-01T06:25:01;20.83;;;10.88;;
77598;SDS011;66758;52.078;5.070;2023-03-01T06:27:26;20.90;;;10.97;;
77598;SDS011;66758;52.078;5.070;2023-03-01T06:29:52;19.87;;;11.27;;
77598;SDS011;66758;52.078;5.070;2023-03-01T06:32:18;20.80;;;11.07;;
77598;SDS011;66758;52.078;5.070;2023-03-01T06:34:44;21.27;;;11.83;;
77598;SDS011;66758;52.078;5.070;2023-03-01T06:37:10;22.63;;;11.52;;
77598;SDS011;66758;52.078;5.070;2023-03-01T06:39:37;23.90;;;11.67;;
77598;SDS011;66758;52.078;5.070;2023-03-01T06:42:03;22.08;;;10.98;;
77598;SDS011;66758;52.078;5.070;2023-03-01T06:44:29;21.98;;;11.68;;
77598;SDS011;66758;52.078;5.070;2023-03-01T06:46:54;19.13;;;10.67;;
77598;SDS011;66758;52.078;5.070;2023-03-01T06:49:20;23.50;;;11.53;;
77598;SDS011;66758;52.078;5.070;2023-03-01T06:51:46;25.53;;;12.77;;
77598;SDS011;66758;52.078;5.070;2023-03-01T06:54:12;23.25;;;11.80;;
77598;SDS011;66758;52.078;5.070;2023-03-01T06:56:38;25.05;;;11.45;;
77598;SDS011;66758;52.078;5.070;2023-03-01T06:59:03;21.37;;;10.80;;
77598;SDS011;66758;52.078;5.070;2023-03-01T07:01:29;22.70;;;10.47;;
77598;SDS011;66758;52.078;5.070;2023-03-01T07:03:55;20.02;;;9.60;;
77598;SDS011;66758;52.078;5.070;2023-03-01T07:06:21;20.45;;;10.40;;
77598;SDS011;66758;52.078;5.070;2023-03-01T07:08:47;24.25;;;10.68;;
77598;SDS011;66758;52.078;5.070;2023-03-01T07:11:13;18.63;;;10.77;;
77598;SDS011;66758;52.078;5.070;2023-03-01T07:13:38;24.25;;;10.55;;
77598;SDS011;66758;52.078;5.070;2023-03-01T07:16:05;19.48;;;10.10;;
77598;SDS011;66758;52.078;5.070;2023-03-01T07:18:31;21.87;;;9.83;;
77598;SDS011;66758;52.078;5.070;2023-03-01T07:20:56;20.10;;;9.90;;
77598;SDS011;66758;52.078;5.070;2023-03-01T07:23:22;19.33;;;10.20;;
77598;SDS011;66758;52.078;5.070;2023-03-01T07:25:51;19.90;;;9.80;;
77598;SDS011;66758;52.078;5.070;2023-03-01T07:28:18;17.90;;;9.63;;
77598;SDS011;66758;52.078;5.070;2023-03-01T07:30:43;21.98;;;10.18;;
77598;SDS011;66758;52.078;5.070;2023-03-01T07:33:09;17.45;;;9.35;;
77598;SDS011;66758;52.078;5.070;2023-03-01T07:35:35;20.80;;;10.07;;
77598;SDS011;66758;52.078;5.070;2023-03-01T07:38:00;21.70;;;11.43;;
77598;SDS011;66758;52.078;5.070;2023-03-01T07:40:32;20.42;;;10.95;;
77598;SDS011;66758;52.078;5.070;2023-03-01T07:43:01;22.27;;;11.82;;
77598;SDS011;66758;52.078;5.070;2023-03-01T07:45:27;21.30;;;10.70;;
77598;SDS011;66758;52.078;5.070;2023-03-01T07:47:54;21.17;;;10.98;;
77598;SDS011;66758;52.078;5.070;2023-03-01T07:50:20;17.42;;;10.07;;
77598;SDS011;66758;52.078;5.070;2023-03-01T07:52:46;20.35;;;10.75;;
77598;SDS011;66758;52.078;5.070;2023-03-01T07:55:13;22.03;;;10.80;;
77598;SDS011;66758;52.078;5.070;2023-03-01T07:57:39;17.27;;;10.50;;
77598;SDS011;66758;52.078;5.070;2023-03-01T08:00:04;19.17;;;10.40;;
77598;SDS011;66758;52.078;5.070;2023-03-01T08:02:31;16.15;;;9.02;;
77598;SDS011;66758;52.078;5.070;2023-03-01T08:04:56;17.08;;;9.10;;
77598;SDS011;66758;52.078;5.070;2023-03-01T08:07:22;16.10;;;8.70;;
77598;SDS011;66758;52.078;5.070;2023-03-01T08:09:48;14.90;;;8.68;;
77598;SDS011;66758;52.078;5.070;2023-03-01T08:12:13;15.67;;;8.63;;
77598;SDS011;66758;52.078;5.070;2023-03-01T08:14:41;15.85;;;7.82;;
77598;SDS011;66758;52.078;5.070;2023-03-01T08:17:07;16.63;;;8.33;;
77598;SDS011;66758;52.078;5.070;2023-03-01T08:19:32;12.43;;;6.57;;
77598;SDS011;66758;52.078;5.070;2023-03-01T08:22:00;14.80;;;7.80;;
77598;SDS011;66758;52.078;5.070;2023-03-01T08:24:27;12.02;;;6.95;;
77598;SDS011;66758;52.078;5.070;2023-03-01T08:26:54;14.30;;;6.40;;
77598;SDS011;66758;52.078;5.070;2023-03-01T08:29:21;13.10;;;6.63;;
77598;SDS011;66758;52.078;5.070;2023-03-01T08:31:46;11.65;;;6.32;;
77598;SDS011;66758;52.078;5.070;2023-03-01T08:34:14;9.93;;;5.67;;
77598;SDS011;66758;52.078;5.070;2023-03-01T08:36:42;10.00;;;5.78;;
77598;SDS011;66758;52.078;5.070;2023-03-01T08:39:10;11.40;;;5.72;;
77598;SDS011;66758;52.078;5.070;2023-03-01T08:41:38;9.70;;;5.68;;
77598;SDS011;66758;52.078;5.070;2023-03-01T08:44:05;7.35;;;4.45;;
77598;SDS011;66758;52.078;5.070;2023-03-01T08:46:33;9.23;;;4.90;;
77598;SDS011;66758;52.078;5.070;2023-03-01T08:49:04;11.20;;;6.25;;
77598;SDS011;66758;52.078;5.070;2023-03-01T08:51:32;11.13;;;5.28;;
77598;SDS011;66758;52.078;5.070;2023-03-01T08:54:05;9.10;;;5.55;;
77598;SDS011;66758;52.078;5.070;2023-03-01T08:56:32;7.65;;;5.13;;
77598;SDS011;66758;52.078;5.070;2023-03-01T08:58:58;7.90;;;4.93;;
77598;SDS011;66758;52.078;5.070;2023-03-01T09:01:24;8.70;;;5.22;;
77598;SDS011;66758;52.078;5.070;2023-03-01T09:03:49;7.60;;;4.67;;
77598;SDS011;66758;52.078;5.070;2023-03-01T09:06:15;9.70;;;4.93;;
77598;SDS011;66758;52.078;5.070;2023-03-01T09:08:42;7.88;;;4.85;;
77598;SDS011;66758;52.078;5.070;2023-03-01T09:11:10;8.67;;;5.10;;
77598;SDS011;66758;52.078;5.070;2023-03-01T09:13:37;8.35;;;5.20;;
77598;SDS011;66758;52.078;5.070;2023-03-01T09:16:03;13.10;;;4.97;;
77598;SDS011;66758;52.078;5.070;2023-03-01T09:18:31;10.00;;;5.22;;
77598;SDS011;66758;52.078;5.070;2023-03-01T09:21:03;8.45;;;5.03;;
77598;SDS011;66758;52.078;5.070;2023-03-01T09:23:35;7.13;;;4.72;;
77598;SDS011;66758;52.078;5.070;2023-03-01T09:26:02;10.27;;;5.38;;
77598;SDS011;66758;52.078;5.070;2023-03-01T09:28:28;10.17;;;5.73;;
77598;SDS011;66758;52.078;5.070;2023-03-01T09:30:57;9.77;;;6.03;;
77598;SDS011;66758;52.078;5.070;2023-03-01T09:33:23;11.13;;;6.10;;
77598;SDS011;66758;52.078;5.070;2023-03-01T09:35:48;9.80;;;5.53;;
77598;SDS011;66758;52.078;5.070;2023-03-01T09:38:14;10.48;;;6.30;;
77598;SDS011;66758;52.078;5.070;2023-03-01T09:40:43;8.63;;;5.70;;
77598;SDS011;66758;52.078;5.070;2023-03-01T09:46:06;9.07;;;5.78;;
77598;SDS011;66758;52.078;5.070;2023-03-01T09:48:41;8.25;;;5.15;;
77598;SDS011;66758;52.078;5.070;2023-03-01T09:51:34;7.55;;;4.50;;
77598;SDS011;66758;52.078;5.070;2023-03-01T09:54:02;79.53;;;37.67;;
77598;SDS011;66758;52.078;5.070;2023-03-01T09:56:30;7.90;;;5.53;;
77598;SDS011;66758;52.078;5.070;2023-03-01T09:59:23;8.25;;;4.90;;
77598;SDS011;66758;52.078;5.070;2023-03-01T10:07:10;8.48;;;4.93;;
77598;SDS011;66758;52.078;5.070;2023-03-01T10:09:45;10.43;;;4.65;;
77598;SDS011;66758;52.078;5.070;2023-03-01T10:12:14;10.10;;;3.93;;
77598;SDS011;66758;52.078;5.070;2023-03-01T10:17:41;8.50;;;4.25;;
77598;SDS011;66758;52.078;5.070;2023-03-01T10:20:18;7.78;;;5.05;;
77598;SDS011;66758;52.078;5.070;2023-03-01T10:22:47;6.53;;;4.03;;
77598;SDS011;66758;52.078;5.070;2023-03-01T10:25:23;8.13;;;5.17;;
77598;SDS011;66758;52.078;5.070;2023-03-01T10:28:02;8.32;;;4.13;;
77598;SDS011;66758;52.078;5.070;2023-03-01T10:30:49;7.60;;;4.45;;
77598;SDS011;66758;52.078;5.070;2023-03-01T10:33:17;9.52;;;4.15;;
77598;SDS011;66758;52.078;5.070;2023-03-01T10:35:46;8.45;;;4.00;;
77598;SDS011;66758;52.078;5.070;2023-03-01T10:38:14;8.30;;;3.50;;
77598;SDS011;66758;52.078;5.070;2023-03-01T10:41:04;7.90;;;3.70;;
77598;SDS011;66758;52.078;5.070;2023-03-01T10:43:46;13.15;;;5.57;;
77598;SDS011;66758;52.078;5.070;2023-03-01T10:46:33;9.05;;;4.10;;
77598;SDS011;66758;52.078;5.070;2023-03-01T10:51:49;6.73;;;4.10;;
77598;SDS011;66758;52.078;5.070;2023-03-01T10:54:17;8.32;;;3.83;;
77598;SDS011;66758;52.078;5.070;2023-03-01T10:56:50;8.70;;;4.80;;
77598;SDS011;66758;52.078;5.070;2023-03-01T10:59:21;6.75;;;3.85;;
77598;SDS011;66758;52.078;5.070;2023-03-01T11:02:15;8.13;;;4.40;;
77598;SDS011;66758;52.078;5.070;2023-03-01T11:07:51;6.80;;;4.20;;
77598;SDS011;66758;52.078;5.070;2023-03-01T11:10:23;6.88;;;4.32;;
77598;SDS011;66758;52.078;5.070;2023-03-01T11:12:50;8.02;;;5.05;;
77598;SDS011;66758;52.078;5.070;2023-03-01T11:15:23;7.43;;;4.65;;
77598;SDS011;66758;52.078;5.070;2023-03-01T11:17:51;9.50;;;4.70;;
77598;SDS011;66758;52.078;5.070;2023-03-01T11:20:33;10.15;;;5.60;;
77598;SDS011;66758;52.078;5.070;2023-03-01T11:23:04;9.75;;;4.60;;
77598;SDS011;66758;52.078;5.070;2023-03-01T11:25:35;9.30;;;4.50;;
77598;SDS011;66758;52.078;5.070;2023-03-01T11:28:05;7.37;;;4.20;;
77598;SDS011;66758;52.078;5.070;2023-03-01T11:30:35;8.77;;;4.13;;
77598;SDS011;66758;52.078;5.070;2023-03-01T11:38:41;8.95;;;4.30;;
77598;SDS011;66758;52.078;5.070;2023-03-01T11:41:18;6.83;;;3.70;;
77598;SDS011;66758;52.078;5.070;2023-03-01T11:43:49;9.07;;;4.63;;
77598;SDS011;66758;52.078;5.070;2023-03-01T11:57:33;8.70;;;4.10;;
77598;SDS011;66758;52.078;5.070;2023-03-01T12:00:36;10.95;;;3.92;;
77598;SDS011;66758;52.078;5.070;2023-03-01T12:06:05;6.55;;;4.40;;
77598;SDS011;66758;52.078;5.070;2023-03-01T12:11:41;7.63;;;3.78;;
77598;SDS011;66758;52.078;5.070;2023-03-01T12:31:13;7.60;;;3.25;;
77598;SDS011;66758;52.078;5.070;2023-03-01T12:39:22;6.07;;;2.65;;
77598;SDS011;66758;52.078;5.070;2023-03-01T12:50:36;5.30;;;2.43;;
77598;SDS011;66758;52.078;5.070;2023-03-01T12:53:23;5.60;;;2.25;;
77598;SDS011;66758;52.078;5.070;2023-03-01T12:56:08;4.70;;;2.70;;
77598;SDS011;66758;52.078;5.070;2023-03-01T13:04:06;5.50;;;2.60;;
77598;SDS011;66758;52.078;5.070;2023-03-01T13:07:24;6.78;;;2.03;;
77598;SDS011;66758;52.078;5.070;2023-03-01T13:13:08;6.00;;;2.80;;
77598;SDS011;66758;52.078;5.070;2023-03-01T13:15:38;5.45;;;2.80;;
77598;SDS011;66758;52.078;5.070;2023-03-01T13:26:18;5.60;;;2.97;;
77598;SDS011;66758;52.078;5.070;2023-03-01T13:31:55;5.17;;;2.70;;
77598;SDS011;66758;52.078;5.070;2023-03-01T13:33:58;4.57;;;2.63;;
77598;SDS011;66758;52.078;5.070;2023-03-01T13:39:31;8.10;;;3.45;;
77598;SDS011;66758;52.078;5.070;2023-03-01T13:44:58;6.27;;;2.83;;
77598;SDS011;66758;52.078;5.070;2023-03-01T13:47:25;6.78;;;2.95;;
77598;SDS011;66758;52.078;5.070;2023-03-01T13:50:00;6.43;;;3.22;;
77598;SDS011;66758;52.078;5.070;2023-03-01T13:54:57;4.97;;;2.83;;
77598;SDS011;66758;52.078;5.070;2023-03-01T13:57:26;6.73;;;2.83;;
77598;SDS011;66758;52.078;5.070;2023-03-01T13:59:56;5.63;;;3.20;;
77598;SDS011;66758;52.078;5.070;2023-03-01T14:02:22;5.13;;;2.80;;
77598;SDS011;66758;52.078;5.070;2023-03-01T14:04:57;4.77;;;2.73;;
77598;SDS011;66758;52.078;5.070;2023-03-01T14:07:24;7.03;;;3.00;;
77598;SDS011;66758;52.078;5.070;2023-03-01T14:10:02;5.13;;;3.00;;
77598;SDS011;66758;52.078;5.070;2023-03-01T14:12:41;7.28;;;2.92;;
77598;SDS011;66758;52.078;5.070;2023-03-01T14:15:36;6.53;;;2.45;;
77598;SDS011;66758;52.078;5.070;2023-03-01T14:18:10;5.23;;;2.57;;
77598;SDS011;66758;52.078;5.070;2023-03-01T14:20:44;7.22;;;3.80;;
77598;SDS011;66758;52.078;5.070;2023-03-01T14:23:22;5.85;;;2.40;;
77598;SDS011;66758;52.078;5.070;2023-03-01T14:25:50;10.13;;;3.00;;
77598;SDS011;66758;52.078;5.070;2023-03-01T14:30:47;5.60;;;3.07;;
77598;SDS011;66758;52.078;5.070;2023-03-01T14:33:20;5.25;;;3.17;;
77598;SDS011;66758;52.078;5.070;2023-03-01T14:36:00;7.18;;;3.22;;
77598;SDS011;66758;52.078;5.070;2023-03-01T14:38:35;4.85;;;2.60;;
77598;SDS011;66758;52.078;5.070;2023-03-01T14:41:05;6.63;;;3.22;;
77598;SDS011;66758;52.078;5.070;2023-03-01T14:43:32;5.23;;;2.70;;
77598;SDS011;66758;52.078;5.070;2023-03-01T14:45:59;6.43;;;3.47;;
77598;SDS011;66758;52.078;5.070;2023-03-01T14:48:25;5.80;;;2.70;;
77598;SDS011;66758;52.078;5.070;2023-03-01T14:50:53;5.57;;;2.63;;
77598;SDS011;66758;52.078;5.070;2023-03-01T14:55:54;6.50;;;3.10;;
77598;SDS011;66758;52.078;5.070;2023-03-01T14:58:23;6.35;;;3.17;;
77598;SDS011;66758;52.078;5.070;2023-03-01T15:00:51;5.93;;;2.83;;
77598;SDS011;66758;52.078;5.070;2023-03-01T15:03:24;5.38;;;2.97;;
77598;SDS011;66758;52.078;5.070;2023-03-01T15:05:53;6.40;;;3.53;;
77598;SDS011;66758;52.078;5.070;2023-03-01T15:08:20;5.90;;;3.33;;
77598;SDS011;66758;52.078;5.070;2023-03-01T15:10:56;5.60;;;2.40;;
77598;SDS011;66758;52.078;5.070;2023-03-01T15:13:28;4.13;;;2.60;;
77598;SDS011;66758;52.078;5.070;2023-03-01T15:18:29;5.67;;;2.97;;
77598;SDS011;66758;52.078;5.070;2023-03-01T15:20:55;5.95;;;2.88;;
77598;SDS011;66758;52.078;5.070;2023-03-01T15:23:31;6.88;;;3.40;;
77598;SDS011;66758;52.078;5.070;2023-03-01T15:25:57;5.50;;;2.90;;
77598;SDS011;66758;52.078;5.070;2023-03-01T15:28:25;6.10;;;3.10;;
77598;SDS011;66758;52.078;5.070;2023-03-01T15:31:00;5.63;;;3.30;;
77598;SDS011;66758;52.078;5.070;2023-03-01T15:33:36;7.90;;;3.92;;
77598;SDS011;66758;52.078;5.070;2023-03-01T15:39:23;7.82;;;4.30;;
77598;SDS011;66758;52.078;5.070;2023-03-01T15:41:58;6.70;;;3.50;;
77598;SDS011;66758;52.078;5.070;2023-03-01T15:44:25;5.80;;;3.75;;
77598;SDS011;66758;52.078;5.070;2023-03-01T15:46:53;5.22;;;3.20;;
77598;SDS011;66758;52.078;5.070;2023-03-01T15:51:45;5.57;;;3.53;;
77598;SDS011;66758;52.078;5.070;2023-03-01T15:54:20;6.53;;;3.37;;
77598;SDS011;66758;52.078;5.070;2023-03-01T15:56:49;4.90;;;3.43;;
77598;SDS011;66758;52.078;5.070;2023-03-01T15:59:15;5.25;;;3.45;;
77598;SDS011;66758;52.078;5.070;2023-03-01T16:01:42;6.20;;;3.58;;
77598;SDS011;66758;52.078;5.070;2023-03-01T16:04:12;6.70;;;3.65;;
77598;SDS011;66758;52.078;5.070;2023-03-01T16:06:45;7.50;;;3.50;;
77598;SDS011;66758;52.078;5.070;2023-03-01T16:09:12;6.93;;;3.30;;
77598;SDS011;66758;52.078;5.070;2023-03-01T16:11:38;6.32;;;2.83;;
77598;SDS011;66758;52.078;5.070;2023-03-01T16:14:05;6.45;;;3.17;;
77598;SDS011;66758;52.078;5.070;2023-03-01T16:16:31;6.13;;;2.87;;
77598;SDS011;66758;52.078;5.070;2023-03-01T16:18:57;6.65;;;2.88;;
77598;SDS011;66758;52.078;5.070;2023-03-01T16:21:23;4.90;;;2.70;;
77598;SDS011;66758;52.078;5.070;2023-03-01T16:23:50;5.55;;;2.90;;
77598;SDS011;66758;52.078;5.070;2023-03-01T16:26:17;7.50;;;3.53;;
77598;SDS011;66758;52.078;5.070;2023-03-01T16:28:44;5.47;;;2.97;;
77598;SDS011;66758;52.078;5.070;2023-03-01T16:31:10;5.37;;;3.17;;
77598;SDS011;66758;52.078;5.070;2023-03-01T16:33:36;7.07;;;3.17;;
77598;SDS011;66758;52.078;5.070;2023-03-01T16:36:10;5.63;;;3.28;;
77598;SDS011;66758;52.078;5.070;2023-03-01T16:38:37;8.93;;;3.42;;
77598;SDS011;66758;52.078;5.070;2023-03-01T16:41:04;6.50;;;3.60;;
77598;SDS011;66758;52.078;5.070;2023-03-01T16:43:30;9.20;;;3.30;;
77598;SDS011;66758;52.078;5.070;2023-03-01T16:45:56;5.88;;;3.08;;
77598;SDS011;66758;52.078;5.070;2023-03-01T16:48:22;7.35;;;3.85;;
77598;SDS011;66758;52.078;5.070;2023-03-01T16:51:00;6.80;;;3.57;;